sensor_id;sensor_type;location;lat;lon;timestamp;pressure;altitude;pressure_sealevel;temperature;humidity
61742;BME280;47650;49.848;9.620;2023-04-07T00:00:20;99702.69;;;10.28;55.61
61742;BME280;47650;49.848;9.620;2023-04-07T00:02:50;99640.50;;;9.93;56.60
61742;BME280;47650;49.848;9.620;2023-04-07T00:05:17;99691.50;;;10.24;57.36
61742;BME280;47650;49.848;9.620;2023-04-07T00:07:44;99694.59;;;10.20;57.83
61742;BME280;47650;49.848;9.620;2023-04-07T00:10:10;99685.13;;;10.07;58.95
61742;BME280;47650;49.848;9.620;2023-04-07T00:12:35;99536.72;;;9.11;58.72
61742;BME280;47650;49.848;9.620;2023-04-07T00:15:02;99694.19;;;10.05;59.76
61742;BME280;47650;49.848;9.620;2023-04-07T00:17:31;99684.28;;;10.07;60.32
61742;BME280;47650;49.848;9.620;2023-04-07T00:19:58;99668.94;;;9.91;60.61
61742;BME280;47650;49.848;9.620;2023-04-07T00:22:24;99676.19;;;9.89;61.04
61742;BME280;47650;49.848;9.620;2023-04-07T00:24:49;99690.84;;;10.03;60.77
61742;BME280;47650;49.848;9.620;2023-04-07T00:27:15;99649.16;;;9.75;61.51
61742;BME280;47650;49.848;9.620;2023-04-07T00:29:41;99692.09;;;9.98;61.11
61742;BME280;47650;49.848;9.620;2023-04-07T00:32:09;99687.06;;;9.95;61.59
61742;BME280;47650;49.848;9.620;2023-04-07T00:34:35;99640.22;;;9.67;61.72
61742;BME280;47650;49.848;9.620;2023-04-07T00:37:01;99677.44;;;9.94;62.60
61742;BME280;47650;49.848;9.620;2023-04-07T00:39:27;99676.22;;;9.98;62.93
61742;BME280;47650;49.848;9.620;2023-04-07T00:41:52;99652.78;;;9.84;63.17
61742;BME280;47650;49.848;9.620;2023-04-07T00:44:17;99648.19;;;9.86;63.66
61742;BME280;47650;49.848;9.620;2023-04-07T00:46:43;99679.13;;;10.05;64.17
61742;BME280;47650;49.848;9.620;2023-04-07T00:49:08;99655.84;;;9.89;65.42
61742;BME280;47650;49.848;9.620;2023-04-07T00:51:34;99649.16;;;9.75;65.76
61742;BME280;47650;49.848;9.620;2023-04-07T00:54:05;99675.91;;;9.82;65.31
61742;BME280;47650;49.848;9.620;2023-04-07T00:56:32;99668.41;;;9.68;64.79
61742;BME280;47650;49.848;9.620;2023-04-07T00:59:00;99652.91;;;9.44;65.90
61742;BME280;47650;49.848;9.620;2023-04-07T01:01:35;99665.44;;;9.41;65.90
61742;BME280;47650;49.848;9.620;2023-04-07T01:04:11;99671.78;;;8.58;67.76
61742;BME280;47650;49.848;9.620;2023-04-07T01:06:49;99618.91;;;7.85;69.24
61742;BME280;47650;49.848;9.620;2023-04-07T01:09:24;99634.94;;;7.93;70.40
61742;BME280;47650;49.848;9.620;2023-04-07T01:15:15;99638.25;;;8.06;72.35
61742;BME280;47650;49.848;9.620;2023-04-07T01:17:44;99657.53;;;7.86;73.18
61742;BME280;47650;49.848;9.620;2023-04-07T01:20:15;99660.53;;;8.14;73.53
61742;BME280;47650;49.848;9.620;2023-04-07T01:22:54;99658.59;;;7.95;74.97
61742;BME280;47650;49.848;9.620;2023-04-07T01:25:49;99520.38;;;6.89;74.86
61742;BME280;47650;49.848;9.620;2023-04-07T01:28:39;99652.19;;;7.97;75.52
61742;BME280;47650;49.848;9.620;2023-04-07T01:31:08;99643.25;;;8.09;77.12
61742;BME280;47650;49.848;9.620;2023-04-07T01:33:34;99653.19;;;7.96;77.33
61742;BME280;47650;49.848;9.620;2023-04-07T01:36:04;99658.13;;;8.10;78.31
61742;BME280;47650;49.848;9.620;2023-04-07T01:38:32;99625.28;;;8.03;78.55
61742;BME280;47650;49.848;9.620;2023-04-07T01:41:00;99648.47;;;8.21;78.84
61742;BME280;47650;49.848;9.620;2023-04-07T01:43:29;99655.69;;;8.19;79.04
61742;BME280;47650;49.848;9.620;2023-04-07T01:45:56;99594.94;;;7.77;78.56
61742;BME280;47650;49.848;9.620;2023-04-07T01:48:23;99588.91;;;7.32;77.51
61742;BME280;47650;49.848;9.620;2023-04-07T01:50:49;99609.03;;;7.66;78.08
61742;BME280;47650;49.848;9.620;2023-04-07T01:53:15;99600.75;;;7.70;78.74
61742;BME280;47650;49.848;9.620;2023-04-07T01:55:42;99609.16;;;7.85;79.16
61742;BME280;47650;49.848;9.620;2023-04-07T01:58:08;99615.91;;;7.57;78.85
61742;BME280;47650;49.848;9.620;2023-04-07T02:00:33;99599.50;;;7.53;79.63
61742;BME280;47650;49.848;9.620;2023-04-07T02:03:10;99633.97;;;7.94;80.55
61742;BME280;47650;49.848;9.620;2023-04-07T02:05:39;99584.81;;;7.61;80.18
61742;BME280;47650;49.848;9.620;2023-04-07T02:08:12;99623.72;;;8.01;80.86
61742;BME280;47650;49.848;9.620;2023-04-07T02:10:41;99626.81;;;8.06;80.55
61742;BME280;47650;49.848;9.620;2023-04-07T02:13:09;99596.72;;;7.55;80.23
61742;BME280;47650;49.848;9.620;2023-04-07T02:15:37;99626.56;;;7.88;81.24
61742;BME280;47650;49.848;9.620;2023-04-07T02:18:09;99590.94;;;7.61;81.45
61742;BME280;47650;49.848;9.620;2023-04-07T02:20:41;99622.56;;;7.72;81.40
61742;BME280;47650;49.848;9.620;2023-04-07T02:23:09;99618.81;;;7.75;81.20
61742;BME280;47650;49.848;9.620;2023-04-07T02:25:35;99576.91;;;7.28;80.94
61742;BME280;47650;49.848;9.620;2023-04-07T02:28:04;99610.59;;;7.68;81.87
61742;BME280;47650;49.848;9.620;2023-04-07T02:30:31;99606.34;;;7.56;82.14
61742;BME280;47650;49.848;9.620;2023-04-07T02:32:57;99601.47;;;7.61;82.44
61742;BME280;47650;49.848;9.620;2023-04-07T02:35:26;99581.34;;;7.60;82.42
61742;BME280;47650;49.848;9.620;2023-04-07T02:37:51;99585.66;;;7.61;82.17
61742;BME280;47650;49.848;9.620;2023-04-07T02:40:17;99597.66;;;7.65;82.57
61742;BME280;47650;49.848;9.620;2023-04-07T02:42:43;99597.34;;;7.80;82.53
61742;BME280;47650;49.848;9.620;2023-04-07T02:45:09;99573.19;;;7.63;82.41
61742;BME280;47650;49.848;9.620;2023-04-07T02:47:38;99571.41;;;7.52;82.03
61742;BME280;47650;49.848;9.620;2023-04-07T02:50:06;99563.00;;;7.38;80.90
61742;BME280;47650;49.848;9.620;2023-04-07T02:52:31;99572.63;;;7.60;82.14
61742;BME280;47650;49.848;9.620;2023-04-07T02:54:57;99556.59;;;7.72;82.57
61742;BME280;47650;49.848;9.620;2023-04-07T02:57:23;99595.22;;;7.95;82.27
61742;BME280;47650;49.848;9.620;2023-04-07T02:59:49;99593.81;;;8.12;83.18
61742;BME280;47650;49.848;9.620;2023-04-07T03:02:24;99513.09;;;7.67;83.41
61742;BME280;47650;49.848;9.620;2023-04-07T03:04:52;99538.94;;;7.94;83.74
61742;BME280;47650;49.848;9.620;2023-04-07T03:07:17;99589.59;;;8.09;83.36
61742;BME280;47650;49.848;9.620;2023-04-07T03:12:10;99580.75;;;8.20;81.66
61742;BME280;47650;49.848;9.620;2023-04-07T03:14:36;99543.78;;;7.89;82.36
61742;BME280;47650;49.848;9.620;2023-04-07T03:17:03;99560.69;;;8.07;82.61
61742;BME280;47650;49.848;9.620;2023-04-07T03:19:28;99580.81;;;8.29;84.18
61742;BME280;47650;49.848;9.620;2023-04-07T03:21:53;99564.59;;;8.13;83.22
61742;BME280;47650;49.848;9.620;2023-04-07T03:24:19;99518.31;;;7.25;81.03
61742;BME280;47650;49.848;9.620;2023-04-07T03:26:44;99579.28;;;8.06;82.91
61742;BME280;47650;49.848;9.620;2023-04-07T03:29:10;99577.06;;;8.01;83.92
61742;BME280;47650;49.848;9.620;2023-04-07T03:31:38;99539.22;;;7.91;83.93
61742;BME280;47650;49.848;9.620;2023-04-07T03:34:04;99563.47;;;7.64;82.11
61742;BME280;47650;49.848;9.620;2023-04-07T03:36:29;99571.25;;;8.07;84.04
61742;BME280;47650;49.848;9.620;2023-04-07T03:38:56;99537.59;;;8.00;85.29
61742;BME280;47650;49.848;9.620;2023-04-07T03:41:23;99481.59;;;7.75;85.83
61742;BME280;47650;49.848;9.620;2023-04-07T03:43:48;99570.78;;;8.44;86.08
61742;BME280;47650;49.848;9.620;2023-04-07T03:46:14;99569.03;;;8.55;86.92
61742;BME280;47650;49.848;9.620;2023-04-07T03:48:40;99571.69;;;8.64;87.70
61742;BME280;47650;49.848;9.620;2023-04-07T03:51:05;99554.88;;;8.65;86.74
61742;BME280;47650;49.848;9.620;2023-04-07T03:53:31;99539.41;;;8.61;86.91
61742;BME280;47650;49.848;9.620;2023-04-07T03:55:57;99565.97;;;8.59;85.41
61742;BME280;47650;49.848;9.620;2023-04-07T03:58:23;99568.09;;;8.65;86.27
61742;BME280;47650;49.848;9.620;2023-04-07T04:00:48;99531.38;;;8.41;87.28
61742;BME280;47650;49.848;9.620;2023-04-07T04:03:15;99570.59;;;8.67;87.66
61742;BME280;47650;49.848;9.620;2023-04-07T04:05:41;99569.03;;;8.64;88.13
61742;BME280;47650;49.848;9.620;2023-04-07T04:08:08;99572.06;;;8.60;88.14
61742;BME280;47650;49.848;9.620;2023-04-07T04:10:34;99575.84;;;8.57;88.43
61742;BME280;47650;49.848;9.620;2023-04-07T04:15:27;99559.09;;;8.47;88.70
61742;BME280;47650;49.848;9.620;2023-04-07T04:17:53;99578.78;;;8.64;88.62
61742;BME280;47650;49.848;9.620;2023-04-07T04:20:19;99583.53;;;8.70;89.07
61742;BME280;47650;49.848;9.620;2023-04-07T04:22:46;99561.59;;;8.79;88.90
61742;BME280;47650;49.848;9.620;2023-04-07T04:25:14;99561.59;;;8.79;89.27
61742;BME280;47650;49.848;9.620;2023-04-07T04:27:40;99557.94;;;8.80;88.67
61742;BME280;47650;49.848;9.620;2023-04-07T04:30:06;99563.53;;;8.87;89.15
61742;BME280;47650;49.848;9.620;2023-04-07T04:32:33;99571.34;;;8.89;89.37
61742;BME280;47650;49.848;9.620;2023-04-07T04:34:59;99567.44;;;8.93;90.05
61742;BME280;47650;49.848;9.620;2023-04-07T04:37:26;99567.19;;;8.96;89.73
61742;BME280;47650;49.848;9.620;2023-04-07T04:39:52;99572.34;;;8.97;90.28
61742;BME280;47650;49.848;9.620;2023-04-07T04:42:18;99569.69;;;8.97;89.89
61742;BME280;47650;49.848;9.620;2023-04-07T04:44:43;99546.84;;;8.87;90.08
61742;BME280;47650;49.848;9.620;2023-04-07T04:47:11;99567.47;;;9.02;90.61
61742;BME280;47650;49.848;9.620;2023-04-07T04:49:36;99547.41;;;8.90;89.93
61742;BME280;47650;49.848;9.620;2023-04-07T04:52:01;99576.53;;;9.00;89.54
61742;BME280;47650;49.848;9.620;2023-04-07T04:54:30;99533.34;;;8.80;89.76
61742;BME280;47650;49.848;9.620;2023-04-07T04:56:57;99526.78;;;8.74;90.02
61742;BME280;47650;49.848;9.620;2023-04-07T04:59:22;99559.09;;;8.97;89.91
61742;BME280;47650;49.848;9.620;2023-04-07T05:01:48;99563.56;;;8.97;89.38
61742;BME280;47650;49.848;9.620;2023-04-07T05:04:13;99541.13;;;8.81;89.49
61742;BME280;47650;49.848;9.620;2023-04-07T05:06:43;99560.50;;;8.92;89.47
61742;BME280;47650;49.848;9.620;2023-04-07T05:09:08;99543.78;;;8.81;89.62
61742;BME280;47650;49.848;9.620;2023-04-07T05:11:34;99573.16;;;8.98;89.85
61742;BME280;47650;49.848;9.620;2023-04-07T05:14:00;99570.50;;;8.98;89.81
61742;BME280;47650;49.848;9.620;2023-04-07T05:16:27;99569.56;;;8.99;89.78
61742;BME280;47650;49.848;9.620;2023-04-07T05:18:54;99565.94;;;9.00;90.03
61742;BME280;47650;49.848;9.620;2023-04-07T05:21:21;99559.66;;;8.91;89.77
61742;BME280;47650;49.848;9.620;2023-04-07T05:23:47;99543.22;;;8.78;89.34
61742;BME280;47650;49.848;9.620;2023-04-07T05:26:16;99566.88;;;8.89;89.91
61742;BME280;47650;49.848;9.620;2023-04-07T05:28:43;99559.25;;;8.86;89.86
61742;BME280;47650;49.848;9.620;2023-04-07T05:31:09;99559.09;;;8.88;90.30
61742;BME280;47650;49.848;9.620;2023-04-07T05:33:37;99575.53;;;9.01;90.79
61742;BME280;47650;49.848;9.620;2023-04-07T05:36:04;99568.03;;;9.06;90.87
61742;BME280;47650;49.848;9.620;2023-04-07T05:38:30;99544.38;;;8.95;90.78
61742;BME280;47650;49.848;9.620;2023-04-07T05:40:55;99563.03;;;9.13;90.89
61742;BME280;47650;49.848;9.620;2023-04-07T05:43:21;99541.59;;;8.96;90.28
61742;BME280;47650;49.848;9.620;2023-04-07T05:45:46;99567.50;;;9.12;90.04
61742;BME280;47650;49.848;9.620;2023-04-07T05:48:11;99566.50;;;9.13;90.01
61742;BME280;47650;49.848;9.620;2023-04-07T05:50:37;99557.44;;;9.06;89.96
61742;BME280;47650;49.848;9.620;2023-04-07T05:53:06;99573.34;;;9.16;89.71
61742;BME280;47650;49.848;9.620;2023-04-07T05:55:32;99570.13;;;9.12;90.94
61742;BME280;47650;49.848;9.620;2023-04-07T05:57:59;99556.50;;;9.07;90.46
61742;BME280;47650;49.848;9.620;2023-04-07T06:00:30;99564.56;;;9.06;91.19
61742;BME280;47650;49.848;9.620;2023-04-07T06:02:57;99566.63;;;9.12;91.50
61742;BME280;47650;49.848;9.620;2023-04-07T06:05:23;99574.44;;;9.13;91.48
61742;BME280;47650;49.848;9.620;2023-04-07T06:07:49;99532.38;;;8.91;90.85
61742;BME280;47650;49.848;9.620;2023-04-07T06:10:14;99506.19;;;8.78;90.88
61742;BME280;47650;49.848;9.620;2023-04-07T06:12:41;99468.75;;;8.53;91.23
61742;BME280;47650;49.848;9.620;2023-04-07T06:15:09;99486.72;;;8.69;91.08
61742;BME280;47650;49.848;9.620;2023-04-07T06:17:36;99519.16;;;8.91;90.56
61742;BME280;47650;49.848;9.620;2023-04-07T06:20:08;99564.72;;;9.23;90.21
61742;BME280;47650;49.848;9.620;2023-04-07T06:22:35;99576.44;;;9.40;90.65
61742;BME280;47650;49.848;9.620;2023-04-07T06:25:00;99570.88;;;9.44;90.29
61742;BME280;47650;49.848;9.620;2023-04-07T06:27:25;99568.50;;;9.50;90.06
61742;BME280;47650;49.848;9.620;2023-04-07T06:29:51;99565.00;;;9.40;88.77
61742;BME280;47650;49.848;9.620;2023-04-07T06:32:16;99564.75;;;9.43;88.99
61742;BME280;47650;49.848;9.620;2023-04-07T06:34:43;99571.56;;;9.46;90.67
61742;BME280;47650;49.848;9.620;2023-04-07T06:37:08;99569.47;;;9.30;88.08
61742;BME280;47650;49.848;9.620;2023-04-07T06:39:39;99549.69;;;9.34;89.23
61742;BME280;47650;49.848;9.620;2023-04-07T06:42:05;99571.69;;;9.54;88.87
61742;BME280;47650;49.848;9.620;2023-04-07T06:44:30;99529.34;;;9.44;89.96
61742;BME280;47650;49.848;9.620;2023-04-07T06:46:56;99564.16;;;9.78;90.55
61742;BME280;47650;49.848;9.620;2023-04-07T06:49:21;99541.59;;;9.74;90.91
61742;BME280;47650;49.848;9.620;2023-04-07T06:51:52;99560.09;;;9.84;90.02
61742;BME280;47650;49.848;9.620;2023-04-07T06:54:17;99554.84;;;9.74;89.85
61742;BME280;47650;49.848;9.620;2023-04-07T06:56:43;99536.44;;;9.73;90.28
61742;BME280;47650;49.848;9.620;2023-04-07T06:59:09;99565.81;;;9.89;89.02
61742;BME280;47650;49.848;9.620;2023-04-07T07:01:34;99562.75;;;9.84;87.80
61742;BME280;47650;49.848;9.620;2023-04-07T07:04:02;99522.34;;;9.72;87.54
61742;BME280;47650;49.848;9.620;2023-04-07T07:06:29;99480.47;;;9.48;87.38
61742;BME280;47650;49.848;9.620;2023-04-07T07:08:55;99557.47;;;9.65;85.93
61742;BME280;47650;49.848;9.620;2023-04-07T07:11:21;99551.47;;;9.72;87.64
61742;BME280;47650;49.848;9.620;2023-04-07T07:13:53;99559.16;;;9.66;87.67
61742;BME280;47650;49.848;9.620;2023-04-07T07:16:19;99576.16;;;9.63;88.37
61742;BME280;47650;49.848;9.620;2023-04-07T07:18:44;99558.59;;;9.52;90.31
61742;BME280;47650;49.848;9.620;2023-04-07T07:21:09;99574.47;;;9.72;90.61
61742;BME280;47650;49.848;9.620;2023-04-07T07:23:41;99552.47;;;9.62;90.42
61742;BME280;47650;49.848;9.620;2023-04-07T07:26:06;99541.91;;;9.52;90.51
61742;BME280;47650;49.848;9.620;2023-04-07T07:28:32;99562.50;;;9.68;89.44
61742;BME280;47650;49.848;9.620;2023-04-07T07:30:57;99573.31;;;10.04;89.64
61742;BME280;47650;49.848;9.620;2023-04-07T07:33:24;99579.66;;;10.21;88.82
61742;BME280;47650;49.848;9.620;2023-04-07T07:35:50;99514.66;;;9.98;87.40
61742;BME280;47650;49.848;9.620;2023-04-07T07:38:15;99535.63;;;10.20;87.05
61742;BME280;47650;49.848;9.620;2023-04-07T07:40:41;99580.00;;;10.55;89.27
61742;BME280;47650;49.848;9.620;2023-04-07T07:43:06;99582.88;;;10.24;85.38
61742;BME280;47650;49.848;9.620;2023-04-07T07:45:33;99584.41;;;10.27;88.39
61742;BME280;47650;49.848;9.620;2023-04-07T07:47:58;99529.38;;;10.11;88.24
61742;BME280;47650;49.848;9.620;2023-04-07T07:50:30;99574.56;;;10.57;89.10
61742;BME280;47650;49.848;9.620;2023-04-07T07:53:04;99442.63;;;9.85;89.22
61742;BME280;47650;49.848;9.620;2023-04-07T07:55:29;99582.38;;;10.58;86.89
61742;BME280;47650;49.848;9.620;2023-04-07T07:57:54;99593.81;;;10.59;87.51
61742;BME280;47650;49.848;9.620;2023-04-07T08:00:24;99594.13;;;10.56;88.08
61742;BME280;47650;49.848;9.620;2023-04-07T08:02:49;99511.84;;;10.00;87.91
61742;BME280;47650;49.848;9.620;2023-04-07T08:05:16;99587.03;;;10.46;88.36
61742;BME280;47650;49.848;9.620;2023-04-07T08:07:51;99473.53;;;9.28;87.58
61742;BME280;47650;49.848;9.620;2023-04-07T08:10:18;99588.81;;;9.98;88.04
61742;BME280;47650;49.848;9.620;2023-04-07T08:12:46;99611.22;;;10.04;88.89
61742;BME280;47650;49.848;9.620;2023-04-07T08:15:18;99565.66;;;9.91;89.06
61742;BME280;47650;49.848;9.620;2023-04-07T08:17:46;99592.56;;;10.06;89.95
61742;BME280;47650;49.848;9.620;2023-04-07T08:20:17;99604.47;;;10.29;89.71
61742;BME280;47650;49.848;9.620;2023-04-07T08:22:43;99613.66;;;10.45;89.46
61742;BME280;47650;49.848;9.620;2023-04-07T08:25:10;99564.72;;;10.39;88.99
61742;BME280;47650;49.848;9.620;2023-04-07T08:27:35;99608.38;;;10.82;88.79
61742;BME280;47650;49.848;9.620;2023-04-07T08:30:05;99561.78;;;10.52;86.15
61742;BME280;47650;49.848;9.620;2023-04-07T08:32:41;99574.81;;;10.63;86.12
61742;BME280;47650;49.848;9.620;2023-04-07T08:35:08;99604.94;;;11.00;87.29
61742;BME280;47650;49.848;9.620;2023-04-07T08:37:36;99613.31;;;10.95;88.04
61742;BME280;47650;49.848;9.620;2023-04-07T08:40:18;99568.72;;;10.81;88.66
61742;BME280;47650;49.848;9.620;2023-04-07T08:42:50;99610.19;;;11.09;87.93
61742;BME280;47650;49.848;9.620;2023-04-07T08:45:18;99609.19;;;11.10;87.17
61742;BME280;47650;49.848;9.620;2023-04-07T08:47:48;99547.72;;;10.69;86.34
61742;BME280;47650;49.848;9.620;2023-04-07T08:50:31;99574.72;;;10.83;86.12
61742;BME280;47650;49.848;9.620;2023-04-07T08:52:59;99611.88;;;11.28;86.94
61742;BME280;47650;49.848;9.620;2023-04-07T08:55:35;99520.25;;;10.88;86.05
61742;BME280;47650;49.848;9.620;2023-04-07T08:58:03;99573.03;;;11.09;84.00
61742;BME280;47650;49.848;9.620;2023-04-07T09:00:29;99545.22;;;11.14;85.27
61742;BME280;47650;49.848;9.620;2023-04-07T09:03:08;99551.75;;;11.37;84.81
61742;BME280;47650;49.848;9.620;2023-04-07T09:05:43;99592.06;;;11.23;84.75
61742;BME280;47650;49.848;9.620;2023-04-07T09:08:10;99564.69;;;11.22;84.01
61742;BME280;47650;49.848;9.620;2023-04-07T09:10:36;99618.78;;;11.39;86.53
61742;BME280;47650;49.848;9.620;2023-04-07T09:13:01;99615.03;;;11.14;83.47
61742;BME280;47650;49.848;9.620;2023-04-07T09:15:30;99615.00;;;10.96;85.08
61742;BME280;47650;49.848;9.620;2023-04-07T09:17:57;99588.31;;;10.98;87.01
61742;BME280;47650;49.848;9.620;2023-04-07T09:20:23;99628.06;;;11.35;87.83
61742;BME280;47650;49.848;9.620;2023-04-07T09:22:50;99623.34;;;11.01;84.80
61742;BME280;47650;49.848;9.620;2023-04-07T09:25:21;99613.44;;;11.49;86.38
61742;BME280;47650;49.848;9.620;2023-04-07T09:28:00;99617.81;;;11.76;87.42
61742;BME280;47650;49.848;9.620;2023-04-07T09:30:29;99615.59;;;11.90;86.24
61742;BME280;47650;49.848;9.620;2023-04-07T09:32:57;99608.47;;;12.08;85.82
61742;BME280;47650;49.848;9.620;2023-04-07T09:35:24;99616.25;;;12.28;85.51
61742;BME280;47650;49.848;9.620;2023-04-07T09:38:09;99612.44;;;12.65;86.87
61742;BME280;47650;49.848;9.620;2023-04-07T09:40:35;99608.53;;;12.16;80.71
61742;BME280;47650;49.848;9.620;2023-04-07T09:43:02;99618.91;;;12.28;82.00
61742;BME280;47650;49.848;9.620;2023-04-07T09:45:30;99616.16;;;12.72;84.47
61742;BME280;47650;49.848;9.620;2023-04-07T09:48:07;99513.84;;;12.15;84.60
61742;BME280;47650;49.848;9.620;2023-04-07T09:50:39;99617.06;;;12.89;82.43
61742;BME280;47650;49.848;9.620;2023-04-07T09:53:05;99581.59;;;12.72;80.55
61742;BME280;47650;49.848;9.620;2023-04-07T09:55:31;99609.63;;;13.01;79.94
61742;BME280;47650;49.848;9.620;2023-04-07T09:57:59;99604.69;;;13.30;81.45
61742;BME280;47650;49.848;9.620;2023-04-07T10:00:26;99609.03;;;13.23;80.69
61742;BME280;47650;49.848;9.620;2023-04-07T10:02:52;99607.63;;;13.70;82.24
61742;BME280;47650;49.848;9.620;2023-04-07T10:05:18;99583.47;;;13.71;81.94
61742;BME280;47650;49.848;9.620;2023-04-07T10:07:49;99516.56;;;13.42;81.02
61742;BME280;47650;49.848;9.620;2023-04-07T10:10:15;99587.47;;;13.59;78.42
61742;BME280;47650;49.848;9.620;2023-04-07T10:12:41;99588.81;;;13.80;78.81
61742;BME280;47650;49.848;9.620;2023-04-07T10:15:08;99602.78;;;14.31;80.56
61742;BME280;47650;49.848;9.620;2023-04-07T10:17:39;99575.88;;;14.49;79.59
61742;BME280;47650;49.848;9.620;2023-04-07T10:20:08;99593.81;;;13.91;73.82
61742;BME280;47650;49.848;9.620;2023-04-07T10:22:37;99606.09;;;14.33;77.59
61742;BME280;47650;49.848;9.620;2023-04-07T10:25:11;99610.47;;;14.18;77.53
61742;BME280;47650;49.848;9.620;2023-04-07T10:27:47;99592.81;;;14.08;77.13
61742;BME280;47650;49.848;9.620;2023-04-07T10:30:24;99594.56;;;14.33;77.29
61742;BME280;47650;49.848;9.620;2023-04-07T10:32:51;99600.31;;;14.77;77.28
61742;BME280;47650;49.848;9.620;2023-04-07T10:35:18;99548.88;;;15.23;71.94
61742;BME280;47650;49.848;9.620;2023-04-07T10:40:36;99596.94;;;16.15;68.93
61742;BME280;47650;49.848;9.620;2023-04-07T10:43:04;99542.44;;;15.55;68.81
61742;BME280;47650;49.848;9.620;2023-04-07T10:45:52;99459.94;;;14.91;70.35
61742;BME280;47650;49.848;9.620;2023-04-07T10:48:21;99600.28;;;15.48;71.08
61742;BME280;47650;49.848;9.620;2023-04-07T10:51:12;99604.69;;;15.64;72.71
61742;BME280;47650;49.848;9.620;2023-04-07T10:54:13;99575.16;;;13.75;63.39
61742;BME280;47650;49.848;9.620;2023-04-07T10:57:11;99517.53;;;13.82;73.07
61742;BME280;47650;49.848;9.620;2023-04-07T11:00:13;99618.41;;;14.59;74.57
61742;BME280;47650;49.848;9.620;2023-04-07T11:04:51;99619.81;;;13.72;76.26
61742;BME280;47650;49.848;9.620;2023-04-07T11:07:18;99619.47;;;13.92;76.50
61742;BME280;47650;49.848;9.620;2023-04-07T11:09:45;99631.47;;;14.13;76.58
61742;BME280;47650;49.848;9.620;2023-04-07T11:12:23;99625.44;;;13.69;70.65
61742;BME280;47650;49.848;9.620;2023-04-07T11:14:48;99609.78;;;13.99;76.71
61742;BME280;47650;49.848;9.620;2023-04-07T11:17:14;99618.78;;;14.15;76.86
61742;BME280;47650;49.848;9.620;2023-04-07T11:19:52;99582.47;;;13.97;75.66
61742;BME280;47650;49.848;9.620;2023-04-07T11:22:18;99621.13;;;14.01;74.85
61742;BME280;47650;49.848;9.620;2023-04-07T11:24:47;99574.16;;;14.00;75.69
61742;BME280;47650;49.848;9.620;2023-04-07T11:27:13;99621.34;;;12.82;64.62
61742;BME280;47650;49.848;9.620;2023-04-07T11:29:38;99600.72;;;12.41;64.58
61742;BME280;47650;49.848;9.620;2023-04-07T11:32:05;99624.28;;;13.05;69.88
61742;BME280;47650;49.848;9.620;2023-04-07T11:34:33;99630.41;;;13.56;71.11
61742;BME280;47650;49.848;9.620;2023-04-07T11:37:22;99616.13;;;13.65;65.59
61742;BME280;47650;49.848;9.620;2023-04-07T11:39:57;99627.94;;;13.04;61.77
61742;BME280;47650;49.848;9.620;2023-04-07T11:44:57;99611.22;;;15.61;67.27
61742;BME280;47650;49.848;9.620;2023-04-07T11:47:33;99602.41;;;16.52;65.30
61742;BME280;47650;49.848;9.620;2023-04-07T11:49:58;99591.34;;;16.85;61.16
61742;BME280;47650;49.848;9.620;2023-04-07T11:52:23;99545.00;;;16.99;58.25
61742;BME280;47650;49.848;9.620;2023-04-07T11:54:50;99596.13;;;17.41;60.26
61742;BME280;47650;49.848;9.620;2023-04-07T11:57:28;99588.63;;;18.22;62.86
61742;BME280;47650;49.848;9.620;2023-04-07T12:00:13;99565.16;;;18.73;57.48
61742;BME280;47650;49.848;9.620;2023-04-07T12:02:40;99558.44;;;18.49;49.56
61742;BME280;47650;49.848;9.620;2023-04-07T12:05:06;99545.59;;;18.44;54.04
61742;BME280;47650;49.848;9.620;2023-04-07T12:07:36;99590.97;;;18.04;47.03
61742;BME280;47650;49.848;9.620;2023-04-07T12:10:23;99581.00;;;19.98;52.31
61742;BME280;47650;49.848;9.620;2023-04-07T12:12:52;99561.63;;;21.19;43.94
61742;BME280;47650;49.848;9.620;2023-04-07T12:15:18;99550.47;;;21.54;44.15
61742;BME280;47650;49.848;9.620;2023-04-07T12:17:47;99564.72;;;22.12;42.17
61742;BME280;47650;49.848;9.620;2023-04-07T12:20:13;99570.81;;;22.26;40.03
61742;BME280;47650;49.848;9.620;2023-04-07T12:22:41;99566.06;;;22.03;37.66
61742;BME280;47650;49.848;9.620;2023-04-07T12:27:33;99562.53;;;23.01;39.12
61742;BME280;47650;49.848;9.620;2023-04-07T12:30:00;99554.59;;;22.32;37.42
61742;BME280;47650;49.848;9.620;2023-04-07T12:32:25;99554.44;;;22.83;36.88
61742;BME280;47650;49.848;9.620;2023-04-07T12:34:52;99523.72;;;24.15;34.11
61742;BME280;47650;49.848;9.620;2023-04-07T12:37:20;99541.28;;;24.89;32.13
61742;BME280;47650;49.848;9.620;2023-04-07T12:39:46;99545.03;;;24.35;32.25
61742;BME280;47650;49.848;9.620;2023-04-07T12:42:19;99548.94;;;24.28;34.29
61742;BME280;47650;49.848;9.620;2023-04-07T12:44:50;99551.53;;;23.99;32.88
61742;BME280;47650;49.848;9.620;2023-04-07T12:47:18;99545.63;;;24.26;33.85
61742;BME280;47650;49.848;9.620;2023-04-07T12:49:52;99546.78;;;23.82;34.35
61742;BME280;47650;49.848;9.620;2023-04-07T12:52:17;99510.91;;;23.33;33.34
61742;BME280;47650;49.848;9.620;2023-04-07T12:54:43;99551.34;;;23.70;35.00
61742;BME280;47650;49.848;9.620;2023-04-07T12:57:11;99557.22;;;22.14;35.52
61742;BME280;47650;49.848;9.620;2023-04-07T12:59:36;99521.72;;;21.35;35.72
61742;BME280;47650;49.848;9.620;2023-04-07T13:02:04;99570.22;;;19.78;39.54
61742;BME280;47650;49.848;9.620;2023-04-07T13:04:29;99558.56;;;21.09;38.32
61742;BME280;47650;49.848;9.620;2023-04-07T13:06:55;99558.19;;;21.44;37.31
61742;BME280;47650;49.848;9.620;2023-04-07T13:09:20;99562.50;;;21.84;36.61
61742;BME280;47650;49.848;9.620;2023-04-07T13:11:47;99558.19;;;22.45;34.24
61742;BME280;47650;49.848;9.620;2023-04-07T13:14:12;99503.84;;;20.63;37.41
61742;BME280;47650;49.848;9.620;2023-04-07T13:16:39;99561.50;;;21.46;37.05
61742;BME280;47650;49.848;9.620;2023-04-07T13:19:10;99557.16;;;21.95;34.44
61742;BME280;47650;49.848;9.620;2023-04-07T13:21:35;99553.66;;;22.20;35.92
61742;BME280;47650;49.848;9.620;2023-04-07T13:24:02;99552.88;;;21.88;34.70
61742;BME280;47650;49.848;9.620;2023-04-07T13:26:27;99560.00;;;22.69;34.93
61742;BME280;47650;49.848;9.620;2023-04-07T13:29:05;99545.34;;;22.77;32.77